sensor_id;sensor_type;location;lat;lon;timestamp;pressure;altitude;pressure_sealevel;temperature;humidity
16664;BME280;8445;51.270;9.434;2023-07-31T00:01:49;99082.59;;;16.90;66.04
16664;BME280;8445;51.270;9.434;2023-07-31T00:04:15;99087.91;;;16.85;66.04
16664;BME280;8445;51.270;9.434;2023-07-31T00:06:41;99079.25;;;16.83;66.01
16664;BME280;8445;51.270;9.434;2023-07-31T00:09:07;99083.47;;;16.79;65.94
16664;BME280;8445;51.270;9.434;2023-07-31T00:11:33;99070.50;;;16.76;66.43
16664;BME280;8445;51.270;9.434;2023-07-31T00:13:59;99066.44;;;16.73;66.45
16664;BME280;8445;51.270;9.434;2023-07-31T00:16:25;99059.66;;;16.71;66.55
16664;BME280;8445;51.270;9.434;2023-07-31T00:18:53;99058.03;;;16.70;66.35
16664;BME280;8445;51.270;9.434;2023-07-31T00:21:19;99061.75;;;16.69;66.71
16664;BME280;8445;51.270;9.434;2023-07-31T00:23:44;99059.66;;;16.71;66.65
16664;BME280;8445;51.270;9.434;2023-07-31T00:26:10;99052.41;;;16.71;66.66
16664;BME280;8445;51.270;9.434;2023-07-31T00:28:36;99050.06;;;16.75;66.92
16664;BME280;8445;51.270;9.434;2023-07-31T00:31:02;99041.97;;;16.75;66.87
16664;BME280;8445;51.270;9.434;2023-07-31T00:33:31;99050.06;;;16.75;66.87
16664;BME280;8445;51.270;9.434;2023-07-31T00:35:57;99045.81;;;16.79;66.87
16664;BME280;8445;51.270;9.434;2023-07-31T00:38:25;99042.06;;;16.80;67.01
16664;BME280;8445;51.270;9.434;2023-07-31T00:40:51;99041.59;;;16.83;66.73
16664;BME280;8445;51.270;9.434;2023-07-31T00:43:17;99035.97;;;16.84;66.87
16664;BME280;8445;51.270;9.434;2023-07-31T00:45:43;99035.97;;;16.84;66.93
16664;BME280;8445;51.270;9.434;2023-07-31T00:48:11;99048.94;;;16.88;67.00
16664;BME280;8445;51.270;9.434;2023-07-31T00:50:38;99040.63;;;16.89;67.00
16664;BME280;8445;51.270;9.434;2023-07-31T00:53:08;99043.31;;;16.89;66.98
16664;BME280;8445;51.270;9.434;2023-07-31T00:55:35;99037.94;;;16.89;67.07
16664;BME280;8445;51.270;9.434;2023-07-31T00:58:01;99027.97;;;16.90;67.00
16664;BME280;8445;51.270;9.434;2023-07-31T01:00:27;99031.00;;;16.93;67.15
16664;BME280;8445;51.270;9.434;2023-07-31T01:02:53;99023.97;;;16.92;66.98
16664;BME280;8445;51.270;9.434;2023-07-31T01:11:00;99010.03;;;16.95;67.18
16664;BME280;8445;51.270;9.434;2023-07-31T01:13:28;99013.31;;;16.97;67.06
16664;BME280;8445;51.270;9.434;2023-07-31T01:15:55;99013.06;;;16.99;67.05
16664;BME280;8445;51.270;9.434;2023-07-31T01:18:21;99007.69;;;16.99;66.84
16664;BME280;8445;51.270;9.434;2023-07-31T01:21:03;99006.38;;;17.01;66.98
16664;BME280;8445;51.270;9.434;2023-07-31T01:27:07;98998.31;;;17.01;67.32
16664;BME280;8445;51.270;9.434;2023-07-31T01:29:49;98992.38;;;16.99;66.90
16664;BME280;8445;51.270;9.434;2023-07-31T01:32:20;99004.50;;;17.02;67.32
16664;BME280;8445;51.270;9.434;2023-07-31T01:34:48;98992.94;;;17.01;67.17
16664;BME280;8445;51.270;9.434;2023-07-31T01:37:15;98990.25;;;17.01;67.51
16664;BME280;8445;51.270;9.434;2023-07-31T01:39:41;98988.63;;;17.00;67.35
16664;BME280;8445;51.270;9.434;2023-07-31T01:42:07;98997.25;;;17.02;67.32
16664;BME280;8445;51.270;9.434;2023-07-31T01:44:33;98987.31;;;17.03;67.50
16664;BME280;8445;51.270;9.434;2023-07-31T01:46:59;98988.13;;;17.03;67.42
16664;BME280;8445;51.270;9.434;2023-07-31T01:49:26;98992.69;;;17.03;67.57
16664;BME280;8445;51.270;9.434;2023-07-31T01:51:52;98980.53;;;17.00;67.83
16664;BME280;8445;51.270;9.434;2023-07-31T01:54:18;98980.28;;;17.02;67.43
16664;BME280;8445;51.270;9.434;2023-07-31T01:56:44;98979.47;;;17.01;67.57
16664;BME280;8445;51.270;9.434;2023-07-31T01:59:10;98974.91;;;17.02;67.57
16664;BME280;8445;51.270;9.434;2023-07-31T02:01:36;98977.59;;;17.02;67.59
16664;BME280;8445;51.270;9.434;2023-07-31T02:04:02;98967.34;;;16.99;67.67
16664;BME280;8445;51.270;9.434;2023-07-31T02:06:28;98975.16;;;17.00;67.92
16664;BME280;8445;51.270;9.434;2023-07-31T02:08:54;98959.03;;;17.00;67.79
16664;BME280;8445;51.270;9.434;2023-07-31T02:11:20;98967.09;;;17.00;67.96
16664;BME280;8445;51.270;9.434;2023-07-31T02:13:49;98968.72;;;17.01;68.29
16664;BME280;8445;51.270;9.434;2023-07-31T02:16:14;98963.91;;;17.03;68.48
16664;BME280;8445;51.270;9.434;2023-07-31T02:18:40;98956.34;;;17.00;68.32
16664;BME280;8445;51.270;9.434;2023-07-31T02:21:06;98950.94;;;17.00;68.41
16664;BME280;8445;51.270;9.434;2023-07-31T02:23:32;98961.16;;;16.98;68.18
16664;BME280;8445;51.270;9.434;2023-07-31T02:25:58;98952.00;;;16.99;68.58
16664;BME280;8445;51.270;9.434;2023-07-31T02:28:24;98951.44;;;16.97;68.52
16664;BME280;8445;51.270;9.434;2023-07-31T02:30:51;98954.34;;;16.96;68.60
16664;BME280;8445;51.270;9.434;2023-07-31T02:33:18;98956.81;;;16.97;69.09
16664;BME280;8445;51.270;9.434;2023-07-31T02:35:43;98957.03;;;16.96;69.19
16664;BME280;8445;51.270;9.434;2023-07-31T02:38:09;98957.28;;;16.94;69.22
16664;BME280;8445;51.270;9.434;2023-07-31T02:40:35;98958.91;;;16.95;69.54
16664;BME280;8445;51.270;9.434;2023-07-31T02:43:01;98954.59;;;16.94;69.67
16664;BME280;8445;51.270;9.434;2023-07-31T02:45:27;98959.41;;;16.92;69.45
16664;BME280;8445;51.270;9.434;2023-07-31T02:47:53;98946.22;;;16.91;69.76
16664;BME280;8445;51.270;9.434;2023-07-31T02:50:20;98943.78;;;16.89;69.83
16664;BME280;8445;51.270;9.434;2023-07-31T02:52:46;98940.28;;;16.89;69.97
16664;BME280;8445;51.270;9.434;2023-07-31T02:55:12;98952.91;;;16.88;69.96
16664;BME280;8445;51.270;9.434;2023-07-31T02:57:38;98953.72;;;16.89;69.96
16664;BME280;8445;51.270;9.434;2023-07-31T03:00:05;98960.72;;;16.90;70.28
16664;BME280;8445;51.270;9.434;2023-07-31T03:02:32;98963.66;;;16.88;70.03
16664;BME280;8445;51.270;9.434;2023-07-31T03:04:58;98962.59;;;16.89;70.04
16664;BME280;8445;51.270;9.434;2023-07-31T03:07:24;98957.78;;;16.91;69.84
16664;BME280;8445;51.270;9.434;2023-07-31T03:09:50;98955.66;;;16.93;69.99
16664;BME280;8445;51.270;9.434;2023-07-31T03:12:16;98963.75;;;16.93;70.03
16664;BME280;8445;51.270;9.434;2023-07-31T03:14:42;98957.28;;;16.94;70.10
16664;BME280;8445;51.270;9.434;2023-07-31T03:17:08;98968.06;;;16.94;70.12
16664;BME280;8445;51.270;9.434;2023-07-31T03:19:34;98967.81;;;16.96;70.25
16664;BME280;8445;51.270;9.434;2023-07-31T03:21:59;98967.59;;;16.97;70.24
16664;BME280;8445;51.270;9.434;2023-07-31T03:24:26;98962.22;;;16.97;70.09
16664;BME280;8445;51.270;9.434;2023-07-31T03:26:52;98961.72;;;17.00;70.50
16664;BME280;8445;51.270;9.434;2023-07-31T03:29:18;98966.03;;;17.01;70.15
16664;BME280;8445;51.270;9.434;2023-07-31T03:31:43;98958.53;;;17.03;70.04
16664;BME280;8445;51.270;9.434;2023-07-31T03:34:09;98945.88;;;17.04;70.02
16664;BME280;8445;51.270;9.434;2023-07-31T03:36:35;98953.47;;;17.07;69.88
16664;BME280;8445;51.270;9.434;2023-07-31T03:39:01;98956.50;;;17.10;70.01
16664;BME280;8445;51.270;9.434;2023-07-31T03:41:27;98956.50;;;17.10;69.74
16664;BME280;8445;51.270;9.434;2023-07-31T03:43:53;98955.19;;;17.13;69.82
16664;BME280;8445;51.270;9.434;2023-07-31T03:46:22;98952.25;;;17.14;69.75
16664;BME280;8445;51.270;9.434;2023-07-31T03:48:49;98957.06;;;17.12;69.85
16664;BME280;8445;51.270;9.434;2023-07-31T03:51:15;98955.50;;;17.17;69.87
16664;BME280;8445;51.270;9.434;2023-07-31T03:53:41;98966.81;;;17.19;69.64
16664;BME280;8445;51.270;9.434;2023-07-31T03:56:06;98965.50;;;17.21;69.73
16664;BME280;8445;51.270;9.434;2023-07-31T03:58:32;98963.41;;;17.23;69.66
16664;BME280;8445;51.270;9.434;2023-07-31T04:00:58;98961.53;;;17.24;69.64
16664;BME280;8445;51.270;9.434;2023-07-31T04:03:24;98959.41;;;17.26;69.69
16664;BME280;8445;51.270;9.434;2023-07-31T04:05:50;98965.09;;;17.29;69.33
16664;BME280;8445;51.270;9.434;2023-07-31T04:08:16;98950.59;;;17.30;69.37
16664;BME280;8445;51.270;9.434;2023-07-31T04:10:42;98958.16;;;17.33;69.17
16664;BME280;8445;51.270;9.434;2023-07-31T04:13:08;98960.59;;;17.35;69.14
16664;BME280;8445;51.270;9.434;2023-07-31T04:15:33;98959.06;;;17.39;69.10
16664;BME280;8445;51.270;9.434;2023-07-31T04:17:59;98953.69;;;17.39;68.71
16664;BME280;8445;51.270;9.434;2023-07-31T04:20:25;98958.56;;;17.42;68.57
16664;BME280;8445;51.270;9.434;2023-07-31T04:22:51;98963.44;;;17.45;68.58
16664;BME280;8445;51.270;9.434;2023-07-31T04:25:17;98959.69;;;17.46;68.33
16664;BME280;8445;51.270;9.434;2023-07-31T04:27:43;98948.66;;;17.48;68.39
16664;BME280;8445;51.270;9.434;2023-07-31T04:30:09;98955.47;;;17.50;68.12
16664;BME280;8445;51.270;9.434;2023-07-31T04:32:35;98960.34;;;17.53;68.11
16664;BME280;8445;51.270;9.434;2023-07-31T04:35:02;98949.56;;;17.53;68.13
16664;BME280;8445;51.270;9.434;2023-07-31T04:37:28;98960.66;;;17.57;67.83
16664;BME280;8445;51.270;9.434;2023-07-31T04:39:54;98962.91;;;17.65;67.70
16664;BME280;8445;51.270;9.434;2023-07-31T04:42:20;98961.59;;;17.67;67.74
16664;BME280;8445;51.270;9.434;2023-07-31T04:44:45;98962.75;;;17.71;67.59
16664;BME280;8445;51.270;9.434;2023-07-31T04:47:11;98956.84;;;17.75;67.48
16664;BME280;8445;51.270;9.434;2023-07-31T04:49:37;98960.38;;;17.75;67.46
16664;BME280;8445;51.270;9.434;2023-07-31T04:52:04;98956.84;;;17.75;67.29
16664;BME280;8445;51.270;9.434;2023-07-31T04:54:30;98951.00;;;17.78;67.19
16664;BME280;8445;51.270;9.434;2023-07-31T04:56:56;98951.81;;;17.78;67.18
16664;BME280;8445;51.270;9.434;2023-07-31T04:59:21;98959.94;;;17.83;67.19
16664;BME280;8445;51.270;9.434;2023-07-31T05:01:47;98966.16;;;17.84;67.25
16664;BME280;8445;51.270;9.434;2023-07-31T05:04:14;98955.50;;;17.94;66.84
16664;BME280;8445;51.270;9.434;2023-07-31T05:06:41;98963.03;;;17.92;67.10
16664;BME280;8445;51.270;9.434;2023-07-31T05:09:07;98950.91;;;17.94;66.85
16664;BME280;8445;51.270;9.434;2023-07-31T05:11:35;98949.41;;;18.04;66.62
16664;BME280;8445;51.270;9.434;2023-07-31T05:14:01;98945.97;;;18.08;66.67
16664;BME280;8445;51.270;9.434;2023-07-31T05:16:27;98950.94;;;18.21;66.37
16664;BME280;8445;51.270;9.434;2023-07-31T05:18:53;98950.06;;;18.43;65.82
16664;BME280;8445;51.270;9.434;2023-07-31T05:21:19;98947.84;;;18.61;65.64
16664;BME280;8445;51.270;9.434;2023-07-31T05:23:44;98934.16;;;18.68;65.60
16664;BME280;8445;51.270;9.434;2023-07-31T05:26:10;98943.84;;;18.64;65.73
16664;BME280;8445;51.270;9.434;2023-07-31T05:28:36;98946.53;;;18.64;65.95
16664;BME280;8445;51.270;9.434;2023-07-31T05:31:04;98946.78;;;18.63;66.16
16664;BME280;8445;51.270;9.434;2023-07-31T05:33:30;98948.72;;;18.67;66.07
16664;BME280;8445;51.270;9.434;2023-07-31T05:35:59;98946.28;;;18.66;66.25
16664;BME280;8445;51.270;9.434;2023-07-31T05:38:25;98947.41;;;18.70;65.98
16664;BME280;8445;51.270;9.434;2023-07-31T05:40:51;98940.97;;;18.76;65.96
16664;BME280;8445;51.270;9.434;2023-07-31T05:43:17;98944.22;;;18.78;65.83
16664;BME280;8445;51.270;9.434;2023-07-31T05:45:43;98948.00;;;18.77;65.79
16664;BME280;8445;51.270;9.434;2023-07-31T05:48:09;98936.13;;;18.78;65.99
16664;BME280;8445;51.270;9.434;2023-07-31T05:50:35;98944.47;;;18.71;65.97
16664;BME280;8445;51.270;9.434;2023-07-31T05:53:01;98945.75;;;18.69;66.21
16664;BME280;8445;51.270;9.434;2023-07-31T05:55:27;98939.00;;;18.66;66.20
16664;BME280;8445;51.270;9.434;2023-07-31T05:57:54;98943.84;;;18.64;66.21
16664;BME280;8445;51.270;9.434;2023-07-31T06:00:20;98947.66;;;18.68;66.14
16664;BME280;8445;51.270;9.434;2023-07-31T06:02:47;98941.78;;;18.76;65.96
16664;BME280;8445;51.270;9.434;2023-07-31T06:05:13;98947.44;;;18.75;65.85
16664;BME280;8445;51.270;9.434;2023-07-31T06:07:40;98939.25;;;18.65;66.28
16664;BME280;8445;51.270;9.434;2023-07-31T06:10:06;98938.66;;;18.57;66.38
16664;BME280;8445;51.270;9.434;2023-07-31T06:12:33;98944.78;;;18.53;66.35
16664;BME280;8445;51.270;9.434;2023-07-31T06:14:59;98939.94;;;18.55;66.44
16664;BME280;8445;51.270;9.434;2023-07-31T06:17:25;98950.72;;;18.55;66.42
16664;BME280;8445;51.270;9.434;2023-07-31T06:19:56;98944.78;;;18.53;66.69
16664;BME280;8445;51.270;9.434;2023-07-31T06:22:22;98942.72;;;18.60;66.48
16664;BME280;8445;51.270;9.434;2023-07-31T06:24:48;98954.38;;;18.66;66.38
16664;BME280;8445;51.270;9.434;2023-07-31T06:27:14;98946.34;;;18.71;66.49
16664;BME280;8445;51.270;9.434;2023-07-31T06:29:40;98954.19;;;18.72;66.37
16664;BME280;8445;51.270;9.434;2023-07-31T06:32:07;98944.47;;;18.71;66.44
16664;BME280;8445;51.270;9.434;2023-07-31T06:34:33;98952.50;;;18.66;66.82
16664;BME280;8445;51.270;9.434;2023-07-31T06:36:59;98955.31;;;18.54;67.09
16664;BME280;8445;51.270;9.434;2023-07-31T06:39:25;98945.84;;;18.52;67.38
16664;BME280;8445;51.270;9.434;2023-07-31T06:41:51;98944.28;;;18.56;67.37
16664;BME280;8445;51.270;9.434;2023-07-31T06:44:16;98947.47;;;18.53;67.70
16664;BME280;8445;51.270;9.434;2023-07-31T06:46:42;98943.94;;;18.47;67.82
16664;BME280;8445;51.270;9.434;2023-07-31T06:49:08;98950.06;;;18.43;68.18
16664;BME280;8445;51.270;9.434;2023-07-31T06:51:34;98946.28;;;18.39;68.41
16664;BME280;8445;51.270;9.434;2023-07-31T06:54:02;98944.38;;;18.39;68.42
16664;BME280;8445;51.270;9.434;2023-07-31T06:56:28;98940.34;;;18.42;68.67
16664;BME280;8445;51.270;9.434;2023-07-31T06:58:55;98936.13;;;18.51;68.56
16664;BME280;8445;51.270;9.434;2023-07-31T07:01:21;98936.78;;;18.63;68.47
16664;BME280;8445;51.270;9.434;2023-07-31T07:03:47;98936.78;;;18.63;68.54
16664;BME280;8445;51.270;9.434;2023-07-31T07:06:13;98936.09;;;18.73;68.70
16664;BME280;8445;51.270;9.434;2023-07-31T07:08:38;98932.28;;;18.69;68.76
16664;BME280;8445;51.270;9.434;2023-07-31T07:11:04;98924.66;;;18.93;68.38
16664;BME280;8445;51.270;9.434;2023-07-31T07:13:30;98929.56;;;19.38;67.55
16664;BME280;8445;51.270;9.434;2023-07-31T07:15:56;98931.69;;;19.88;66.96
16664;BME280;8445;51.270;9.434;2023-07-31T07:18:22;98927.78;;;20.42;66.10
16664;BME280;8445;51.270;9.434;2023-07-31T07:20:52;98923.22;;;20.73;65.83
16664;BME280;8445;51.270;9.434;2023-07-31T07:23:18;98924.28;;;21.12;65.54
16664;BME280;8445;51.270;9.434;2023-07-31T07:25:46;98926.44;;;21.15;65.69
16664;BME280;8445;51.270;9.434;2023-07-31T07:28:12;98937.03;;;20.91;66.20
16664;BME280;8445;51.270;9.434;2023-07-31T07:30:38;98929.44;;;20.88;66.47
16664;BME280;8445;51.270;9.434;2023-07-31T07:33:05;98924.28;;;21.02;66.21
16664;BME280;8445;51.270;9.434;2023-07-31T07:35:35;98923.75;;;21.10;66.10
16664;BME280;8445;51.270;9.434;2023-07-31T07:38:02;98921.53;;;21.22;65.78
16664;BME280;8445;51.270;9.434;2023-07-31T07:40:28;98919.09;;;21.21;65.98
16664;BME280;8445;51.270;9.434;2023-07-31T07:42:54;98916.69;;;21.14;66.07
16664;BME280;8445;51.270;9.434;2023-07-31T07:45:20;98917.78;;;21.18;66.29
16664;BME280;8445;51.270;9.434;2023-07-31T07:47:46;98903.09;;;21.45;65.59
16664;BME280;8445;51.270;9.434;2023-07-31T07:50:12;98903.28;;;21.69;65.22
16664;BME280;8445;51.270;9.434;2023-07-31T07:52:38;98901.63;;;21.73;64.90
16664;BME280;8445;51.270;9.434;2023-07-31T07:55:04;98902.41;;;21.83;64.64
16664;BME280;8445;51.270;9.434;2023-07-31T07:57:30;98901.56;;;21.93;64.23
16664;BME280;8445;51.270;9.434;2023-07-31T07:59:56;98896.09;;;22.48;63.31
16664;BME280;8445;51.270;9.434;2023-07-31T08:02:22;98889.78;;;22.91;62.44
16664;BME280;8445;51.270;9.434;2023-07-31T08:04:48;98890.00;;;23.24;61.96
16664;BME280;8445;51.270;9.434;2023-07-31T08:07:14;98880.44;;;23.74;61.05
16664;BME280;8445;51.270;9.434;2023-07-31T08:09:40;98878.34;;;24.28;60.25
16664;BME280;8445;51.270;9.434;2023-07-31T08:12:07;98874.16;;;24.54;59.49
16664;BME280;8445;51.270;9.434;2023-07-31T08:14:33;98873.22;;;24.45;59.69
16664;BME280;8445;51.270;9.434;2023-07-31T08:17:00;98870.47;;;24.26;59.99
16664;BME280;8445;51.270;9.434;2023-07-31T08:19:26;98870.13;;;23.95;60.44
16664;BME280;8445;51.270;9.434;2023-07-31T08:21:52;98866.09;;;23.45;60.83
16664;BME280;8445;51.270;9.434;2023-07-31T08:24:18;98868.03;;;22.91;61.74
16664;BME280;8445;51.270;9.434;2023-07-31T08:26:44;98854.88;;;22.40;62.46
16664;BME280;8445;51.270;9.434;2023-07-31T08:29:09;98866.41;;;22.22;62.34
16664;BME280;8445;51.270;9.434;2023-07-31T08:31:35;98872.19;;;22.10;61.96
16664;BME280;8445;51.270;9.434;2023-07-31T08:34:01;98875.53;;;21.87;62.59
16664;BME280;8445;51.270;9.434;2023-07-31T08:36:27;98877.53;;;21.71;62.84
16664;BME280;8445;51.270;9.434;2023-07-31T08:38:53;98874.84;;;21.66;62.62
16664;BME280;8445;51.270;9.434;2023-07-31T08:41:19;98882.16;;;21.66;62.50
16664;BME280;8445;51.270;9.434;2023-07-31T08:43:46;98871.13;;;22.01;61.71
16664;BME280;8445;51.270;9.434;2023-07-31T08:46:14;98875.16;;;22.14;61.51
16664;BME280;8445;51.270;9.434;2023-07-31T08:48:42;98870.88;;;21.98;61.93
16664;BME280;8445;51.270;9.434;2023-07-31T08:51:08;98877.91;;;22.09;61.67
16664;BME280;8445;51.270;9.434;2023-07-31T08:53:35;98875.44;;;22.02;61.93
16664;BME280;8445;51.270;9.434;2023-07-31T08:56:03;98886.19;;;21.73;62.46
16664;BME280;8445;51.270;9.434;2023-07-31T08:58:32;98888.19;;;21.47;62.78
16664;BME280;8445;51.270;9.434;2023-07-31T09:01:03;98878.75;;;21.35;63.01
16664;BME280;8445;51.270;9.434;2023-07-31T09:03:34;98890.09;;;21.52;62.49
16664;BME280;8445;51.270;9.434;2023-07-31T09:06:03;98888.00;;;21.88;62.01
16664;BME280;8445;51.270;9.434;2023-07-31T09:08:32;98885.50;;;22.07;61.60
16664;BME280;8445;51.270;9.434;2023-07-31T09:11:02;98887.16;;;21.98;62.14
16664;BME280;8445;51.270;9.434;2023-07-31T09:13:32;98889.38;;;21.86;62.45
16664;BME280;8445;51.270;9.434;2023-07-31T09:15:59;98880.91;;;22.07;62.07
16664;BME280;8445;51.270;9.434;2023-07-31T09:18:26;98873.84;;;22.06;62.00
16664;BME280;8445;51.270;9.434;2023-07-31T09:21:05;98878.25;;;21.87;62.49
16664;BME280;8445;51.270;9.434;2023-07-31T09:23:43;98877.28;;;21.68;63.20
16664;BME280;8445;51.270;9.434;2023-07-31T09:26:10;98879.75;;;21.59;63.33
16664;BME280;8445;51.270;9.434;2023-07-31T09:28:36;98868.41;;;21.52;63.36
16664;BME280;8445;51.270;9.434;2023-07-31T09:31:02;98864.16;;;21.26;63.84
16664;BME280;8445;51.270;9.434;2023-07-31T09:33:28;98864.47;;;20.93;64.60
16664;BME280;8445;51.270;9.434;2023-07-31T09:35:54;98868.00;;;20.69;65.20
16664;BME280;8445;51.270;9.434;2023-07-31T09:38:20;98855.03;;;20.55;65.28
16664;BME280;8445;51.270;9.434;2023-07-31T09:40:48;98857.19;;;20.53;65.26
16664;BME280;8445;51.270;9.434;2023-07-31T09:43:20;98858.25;;;20.67;65.19
16664;BME280;8445;51.270;9.434;2023-07-31T09:45:47;98861.44;;;21.15;64.12
16664;BME280;8445;51.270;9.434;2023-07-31T09:48:16;98847.22;;;22.13;62.31
16664;BME280;8445;51.270;9.434;2023-07-31T09:50:46;98850.94;;;22.91;61.25
16664;BME280;8445;51.270;9.434;2023-07-31T09:53:12;98847.38;;;23.19;61.17
16664;BME280;8445;51.270;9.434;2023-07-31T09:55:41;98844.72;;;23.14;61.83
16664;BME280;8445;51.270;9.434;2023-07-31T09:58:11;98835.75;;;23.14;61.98
16664;BME280;8445;51.270;9.434;2023-07-31T10:00:38;98833.56;;;23.40;61.53
16664;BME280;8445;51.270;9.434;2023-07-31T10:03:06;98828.47;;;24.51;59.01
16664;BME280;8445;51.270;9.434;2023-07-31T10:05:40;98826.31;;;25.63;57.12
16664;BME280;8445;51.270;9.434;2023-07-31T10:08:10;98827.63;;;26.15;56.65
16664;BME280;8445;51.270;9.434;2023-07-31T10:10:43;98818.16;;;26.35;56.76
16664;BME280;8445;51.270;9.434;2023-07-31T10:13:12;98830.66;;;26.72;56.26
16664;BME280;8445;51.270;9.434;2023-07-31T10:15:38;98816.09;;;26.94;55.71
16664;BME280;8445;51.270;9.434;2023-07-31T10:18:06;98822.31;;;27.57;54.41
16664;BME280;8445;51.270;9.434;2023-07-31T10:20:33;98805.41;;;27.63;54.65
16664;BME280;8445;51.270;9.434;2023-07-31T10:23:00;98805.94;;;28.43;53.01
16664;BME280;8445;51.270;9.434;2023-07-31T10:25:27;98809.78;;;28.60;52.42
16664;BME280;8445;51.270;9.434;2023-07-31T10:27:54;98807.22;;;28.54;52.18
16664;BME280;8445;51.270;9.434;2023-07-31T10:30:29;98814.66;;;27.93;52.53
16664;BME280;8445;51.270;9.434;2023-07-31T10:32:57;98817.44;;;27.45;53.64
16664;BME280;8445;51.270;9.434;2023-07-31T10:35:23;98822.03;;;27.19;53.50
16664;BME280;8445;51.270;9.434;2023-07-31T10:37:52;98813.50;;;27.68;52.57
16664;BME280;8445;51.270;9.434;2023-07-31T10:40:27;98804.34;;;29.06;49.71
16664;BME280;8445;51.270;9.434;2023-07-31T10:42:57;98798.63;;;28.73;50.50
16664;BME280;8445;51.270;9.434;2023-07-31T10:45:48;98801.59;;;27.90;51.83
16664;BME280;8445;51.270;9.434;2023-07-31T10:48:16;98794.53;;;27.81;52.23
16664;BME280;8445;51.270;9.434;2023-07-31T10:50:51;98795.75;;;27.57;52.22
16664;BME280;8445;51.270;9.434;2023-07-31T10:53:26;98788.44;;;27.27;52.38
16664;BME280;8445;51.270;9.434;2023-07-31T10:55:52;98785.66;;;26.78;53.05
16664;BME280;8445;51.270;9.434;2023-07-31T10:58:20;98788.00;;;26.18;54.06
16664;BME280;8445;51.270;9.434;2023-07-31T11:00:47;98780.78;;;26.67;52.80
16664;BME280;8445;51.270;9.434;2023-07-31T11:03:18;98785.91;;;26.99;51.88
16664;BME280;8445;51.270;9.434;2023-07-31T11:05:55;98790.19;;;27.23;51.36
16664;BME280;8445;51.270;9.434;2023-07-31T11:08:36;98772.13;;;27.04;51.75
16664;BME280;8445;51.270;9.434;2023-07-31T11:11:09;98775.19;;;27.86;50.13
16664;BME280;8445;51.270;9.434;2023-07-31T11:13:48;98778.72;;;29.02;47.86
16664;BME280;8445;51.270;9.434;2023-07-31T11:16:24;98767.59;;;28.43;49.64
16664;BME280;8445;51.270;9.434;2023-07-31T11:18:51;98765.31;;;27.50;50.82
16664;BME280;8445;51.270;9.434;2023-07-31T11:21:22;98765.25;;;26.76;51.67
16664;BME280;8445;51.270;9.434;2023-07-31T11:23:52;98762.88;;;25.85;52.86
16664;BME280;8445;51.270;9.434;2023-07-31T11:26:19;98766.16;;;25.46;53.05
16664;BME280;8445;51.270;9.434;2023-07-31T11:28:50;98769.09;;;24.94;53.44
16664;BME280;8445;51.270;9.434;2023-07-31T11:31:17;98767.03;;;25.05;53.17
16664;BME280;8445;51.270;9.434;2023-07-31T11:33:44;98770.31;;;24.88;53.26
16664;BME280;8445;51.270;9.434;2023-07-31T11:36:20;98769.88;;;24.67;53.68
16664;BME280;8445;51.270;9.434;2023-07-31T11:38:47;98773.72;;;24.66;53.68
16664;BME280;8445;51.270;9.434;2023-07-31T11:41:17;98764.78;;;25.07;52.50
16664;BME280;8445;51.270;9.434;2023-07-31T11:43:43;98763.19;;;25.06;52.52
16664;BME280;8445;51.270;9.434;2023-07-31T11:46:09;98761.84;;;25.45;51.73
16664;BME280;8445;51.270;9.434;2023-07-31T11:48:37;98758.69;;;25.87;50.49
16664;BME280;8445;51.270;9.434;2023-07-31T11:51:06;98753.56;;;26.08;50.31
16664;BME280;8445;51.270;9.434;2023-07-31T11:53:53;98754.88;;;26.33;49.13
16664;BME280;8445;51.270;9.434;2023-07-31T11:56:23;98758.81;;;26.27;49.78
16664;BME280;8445;51.270;9.434;2023-07-31T11:58:57;98762.09;;;25.71;50.66
16664;BME280;8445;51.270;9.434;2023-07-31T12:01:24;98767.19;;;25.22;51.33
16664;BME280;8445;51.270;9.434;2023-07-31T12:03:53;98765.56;;;24.94;51.82
16664;BME280;8445;51.270;9.434;2023-07-31T12:06:19;98766.78;;;24.88;51.88
16664;BME280;8445;51.270;9.434;2023-07-31T12:08:48;98770.63;;;24.73;52.05
16664;BME280;8445;51.270;9.434;2023-07-31T12:11:14;98770.59;;;24.59;52.37
16664;BME280;8445;51.270;9.434;2023-07-31T12:13:40;98767.56;;;24.47;52.09
16664;BME280;8445;51.270;9.434;2023-07-31T12:16:06;98764.22;;;24.50;52.10
16664;BME280;8445;51.270;9.434;2023-07-31T12:18:38;98752.44;;;24.68;51.44
16664;BME280;8445;51.270;9.434;2023-07-31T12:21:07;98770.19;;;24.66;52.11
16664;BME280;8445;51.270;9.434;2023-07-31T12:23:36;98760.59;;;24.22;52.89
16664;BME280;8445;51.270;9.434;2023-07-31T12:26:15;98758.88;;;23.94;53.19
16664;BME280;8445;51.270;9.434;2023-07-31T12:28:50;98767.41;;;23.87;53.45
16664;BME280;8445;51.270;9.434;2023-07-31T12:31:21;98759.19;;;23.73;53.63
16664;BME280;8445;51.270;9.434;2023-07-31T12:33:50;98761.09;;;23.73;53.95
16664;BME280;8445;51.270;9.434;2023-07-31T12:36:24;98762.00;;;23.44;54.64
16664;BME280;8445;51.270;9.434;2023-07-31T12:38:52;98753.72;;;23.54;54.80
16664;BME280;8445;51.270;9.434;2023-07-31T12:41:18;98755.06;;;23.95;54.19
16664;BME280;8445;51.270;9.434;2023-07-31T12:43:45;98745.47;;;23.65;54.93
16664;BME280;8445;51.270;9.434;2023-07-31T12:46:11;98750.44;;;23.57;54.99
16664;BME280;8445;51.270;9.434;2023-07-31T12:48:38;98736.09;;;23.52;55.09
16664;BME280;8445;51.270;9.434;2023-07-31T12:51:05;98737.16;;;23.32;55.48
16664;BME280;8445;51.270;9.434;2023-07-31T12:53:32;98739.00;;;23.18;56.03
16664;BME280;8445;51.270;9.434;2023-07-31T12:55:58;98739.56;;;23.15;55.86
16664;BME280;8445;51.270;9.434;2023-07-31T12:58:25;98732.44;;;23.19;55.81
16664;BME280;8445;51.270;9.434;2023-07-31T13:00:51;98733.13;;;23.29;55.50
16664;BME280;8445;51.270;9.434;2023-07-31T13:03:17;98730.81;;;23.61;55.14
16664;BME280;8445;51.270;9.434;2023-07-31T13:05:43;98721.66;;;23.89;54.65
16664;BME280;8445;51.270;9.434;2023-07-31T13:08:09;98727.66;;;23.91;54.53
16664;BME280;8445;51.270;9.434;2023-07-31T13:10:35;98725.38;;;24.12;53.98
16664;BME280;8445;51.270;9.434;2023-07-31T13:13:01;98722.59;;;24.63;52.78
16664;BME280;8445;51.270;9.434;2023-07-31T13:15:27;98720.78;;;24.86;52.81
16664;BME280;8445;51.270;9.434;2023-07-31T13:17:53;98730.06;;;24.85;53.02
16664;BME280;8445;51.270;9.434;2023-07-31T13:20:18;98724.41;;;25.09;52.20